Terminal Aerodrome Forecast
Issued by NWS Duluth, MN

Home | Current Version | Previous Version | Text Only | Print | Product List | Glossary On
Versions: 1 2 3 4 5 6 7 8 9 10 11 12 13 14 15 16 17
000
FTUS43 KDLH 222340
TAFINL
TAF
KINL 222340Z 2300/2324 19006KT P6SM OVC045
     FM230600 00000KT P6SM VCSH OVC035
     FM230700 00000KT 1 1/2SM -SN OVC030
     FM231200 00000KT 1SM -SN OVC025
     FM231400 00000KT P6SM VCSH OVC030
     FM231600 VRB05KT P6SM BKN040=

USA.gov is the U.S. government's official web portal to all federal, state and local government web resources and services.